Latest Weather Observations for Oakey

IDQ60901

Issued at 4:51 am EST Tuesday 21 November 2017 (issued every 10 minutes, with the page automatically refreshed every 10 minutes)

About weather observations | Map of Brisbane area stations | Latest observations for Brisbane area | Other Formats
Station Details ID: 041359 Name: OAKEY AERO Lat: -27.40 Lon: 151.74 Height: 405.69 m
Data from the previous 72 hours. | See also: Recent months at Oakey
Date/Time
EST
Temp
°C
App
Temp
°C
Dew
Point
°C
Rel
Hum
%
Delta-T
°C
Wind Press
QNH
hPa
Press
MSL
hPa
Rain since
9am
mm
Dir  Spd
km/h
Gust
km/h
Spd
kts
Gust
kts
21/04:30am 15.4 12.3 12.3 82 1.7 E 20 28 11 15 1018.8 1017.0 0.0
21/04:00am 14.5 12.0 12.2 86 1.3 ESE 17 20 9 11 1018.6 1016.8 0.0
21/03:30am 14.3 11.3 12.0 86 1.3 E 19 20 10 11 1018.5 1016.7 0.0
21/03:00am 14.3 11.6 11.8 85 1.4 ESE 17 20 9 11 1018.5 1016.7 0.0
21/02:30am 14.4 11.8 12.1 86 1.3 E 17 24 9 13 1018.5 1016.7 0.0
21/02:00am 14.3 12.1 12.0 86 1.3 E 15 19 8 10 1018.7 1016.9 0.0
21/01:30am 14.8 12.5 11.8 82 1.7 ESE 15 20 8 11 1018.9 1017.1 0.0
21/01:00am 15.2 11.6 12.0 81 1.8 ESE 22 30 12 16 1019.0 1017.2 0.0
21/12:30am 15.4 11.5 12.2 81 1.8 ESE 24 28 13 15 1019.0 1017.2 0.0
21/12:00am 15.8 11.3 12.5 81 1.8 ESE 28 35 15 19 1019.4 1017.6 0.0
 
Date/Time
EST
Temp
°C
App
Temp
°C
Dew
Point
°C
Rel
Hum
%
Delta-T
°C
Wind Press
QNH
hPa
Press
MSL
hPa
Rain since
9am
mm
Dir  Spd
km/h
Gust
km/h
Spd
kts
Gust
kts
20/11:30pm 15.5 11.7 12.4 82 1.7 E 24 30 13 16 1019.7 1017.9 0.0
20/11:00pm 15.9 12.1 12.5 80 1.9 ESE 24 33 13 18 1020.2 1018.4 0.0
20/10:30pm 16.2 13.2 12.6 79 2.0 E 20 26 11 14 1020.4 1018.6 0.0
20/10:00pm 16.4 12.7 12.8 79 2.0 E 24 35 13 19 1020.4 1018.6 0.0
20/09:30pm 16.1 13.9 13.4 84 1.5 E 17 20 9 11 1020.8 1019.0 0.0
20/09:00pm 16.7 14.6 13.6 82 1.8 E 17 22 9 12 1020.9 1019.1 0.0
20/08:30pm 17.2 13.7 13.5 79 2.1 E 24 30 13 16 1020.6 1018.9 0.0
20/08:00pm 17.7 13.8 13.4 76 2.5 ESE 26 33 14 18 1020.4 1018.6 0.0
20/07:30pm 17.6 14.5 13.5 77 2.4 E 22 30 12 16 1020.0 1018.2 0.0
20/07:00pm 17.8 14.2 13.1 74 2.7 E 24 32 13 17 1019.7 1017.9 0.0
20/06:30pm 18.2 13.9 13.1 72 2.9 ESE 28 35 15 19 1019.3 1017.5 0.0
20/06:00pm 18.6 13.2 13.9 74 2.7 ESE 35 50 19 27 1019.0 1017.2 0.0
20/05:30pm 18.7 10.9 14.2 75 2.6 ESE 48 57 26 31 1018.7 1016.9 0.0
20/05:00pm 23.3 16.2 11.0 46 7.0 ESE 39 46 21 25 1018.0 1016.2 0.0
20/04:30pm 24.4 18.5 11.0 43 7.6 E 33 44 18 24 1017.5 1015.7 0.0
20/04:12pm 25.2 19.3 10.6 40 8.3 ESE 32 56 17 30 1017.4 1015.6 0.0
20/04:00pm 25.1 19.6 9.0 36 8.9 ESE 28 41 15 22 1017.4 1015.6 0.0
20/03:30pm 26.0 21.3 9.4 35 9.3 SE 24 33 13 18 1017.4 1015.6 0.0
20/03:00pm 25.8 21.5 7.9 32 9.7 ESE 20 33 11 18 1017.6 1015.8 0.0
20/02:30pm 25.9 20.1 8.0 32 9.8 ESE 28 37 15 20 1017.9 1016.1 0.0
20/02:00pm 25.6 20.2 8.1 33 9.5 E 26 39 14 21 1018.3 1016.4 0.0
20/01:30pm 25.1 19.0 6.8 31 9.7 ESE 28 35 15 19 1018.8 1017.0 0.0
20/01:00pm 24.6 19.3 6.8 32 9.4 ESE 24 37 13 20 1019.3 1017.5 0.0
20/12:30pm 24.9 19.3 8.8 36 8.9 SE 28 44 15 24 1019.5 1017.7 0.0
20/12:00pm 23.9 17.8 8.3 37 8.4 E 30 39 16 21 1019.9 1018.1 0.0
20/11:30am 22.5 17.3 9.0 42 7.4 ESE 26 41 14 22 1020.3 1018.5 0.0
20/11:00am 23.7 18.4 10.0 42 7.6 E 28 37 15 20 1020.5 1018.8 0.0
20/10:30am 22.6 17.3 9.7 44 7.1 ESE 28 41 15 22 1020.9 1019.1 0.0
20/10:00am 22.2 16.9 10.0 46 6.7 ESE 28 35 15 19 1021.1 1019.3 0.0
20/09:30am 21.5 16.5 9.7 47 6.5 E 26 39 14 21 1021.1 1019.3 0.0
20/09:00am 20.7 15.6 10.5 52 5.6 ESE 28 37 15 20 1021.0 1019.2 0.0
20/08:30am 20.4 15.4 10.8 54 5.3 ESE 28 39 15 21 1021.0 1019.2 0.0
20/08:00am 19.8 15.0 11.6 59 4.6 ESE 28 41 15 22 1020.8 1019.0 0.0
20/07:30am 18.8 13.9 11.4 62 4.1 ESE 28 37 15 20 1020.4 1018.6 0.0
20/07:00am 18.3 13.5 11.8 66 3.6 ESE 28 35 15 19 1020.2 1018.4 0.0
20/06:30am 17.5 13.7 12.4 72 2.9 ESE 24 32 13 17 1019.8 1018.0 0.0
20/06:00am 16.7 13.3 12.5 76 2.4 ESE 22 30 12 16 1019.6 1017.8 0.0
20/05:30am 15.9 12.5 12.5 80 1.9 E 22 28 12 15 1019.2 1017.4 0.0
20/05:00am 15.8 12.7 12.2 79 2.0 E 20 24 11 13 1019.0 1017.2 0.0
20/04:30am 15.7 13.3 12.5 81 1.8 E 17 20 9 11 1018.8 1017.0 0.0
20/04:00am 15.2 12.7 12.3 83 1.6 E 17 24 9 13 1018.4 1016.6 0.0
20/03:30am 14.7 12.7 12.7 88 1.1 E 15 19 8 10 1018.4 1016.6 0.0
20/03:00am 13.6 11.8 12.0 90 0.9 ESE 13 15 7 8 1018.0 1016.2 0.0
20/02:30am 13.2 10.6 11.9 92 0.7 ESE 17 19 9 10 1017.9 1016.1 0.0
20/02:00am 12.8 11.8 11.0 89 1.0 SSE 7 9 4 5 1018.4 1016.6 0.0
20/01:30am 13.0 12.2 11.1 88 1.0 SE 6 7 3 4 1018.6 1016.8 0.0
20/01:00am 13.5 12.7 11.6 88 1.0 E 7 9 4 5 1018.7 1016.9 0.0
20/12:30am 13.6 12.0 11.7 88 1.0 SE 11 13 6 7 1018.9 1017.1 0.0
20/12:00am 14.2 13.3 11.5 84 1.5 S 7 9 4 5 1019.2 1017.4 0.0
 
Date/Time
EST
Temp
°C
App
Temp
°C
Dew
Point
°C
Rel
Hum
%
Delta-T
°C
Wind Press
QNH
hPa
Press
MSL
hPa
Rain since
9am
mm
Dir  Spd
km/h
Gust
km/h
Spd
kts
Gust
kts
19/11:30pm 15.5 13.8 12.3 81 1.8 ESE 13 19 7 10 1019.2 1017.4 0.0
19/11:00pm 15.9 13.0 12.3 79 2.0 ESE 19 22 10 12 1019.4 1017.6 0.0
19/10:30pm 15.7 13.6 11.3 75 2.4 ESE 13 19 7 10 1019.6 1017.8 0.0
19/10:00pm 16.4 13.7 11.6 73 2.6 E 17 22 9 12 1019.6 1017.8 0.0
19/09:30pm 16.7 13.5 11.4 71 2.9 E 19 24 10 13 1019.8 1018.0 0.0
19/09:00pm 17.0 13.9 11.7 71 2.9 E 19 26 10 14 1020.1 1018.3 0.0
19/08:30pm 17.1 14.0 12.2 73 2.8 E 20 26 11 14 1020.1 1018.3 0.0
19/08:00pm 17.4 14.4 12.5 73 2.8 E 20 26 11 14 1019.8 1018.0 0.0
19/07:30pm 17.6 14.2 12.5 72 2.9 E 22 28 12 15 1019.6 1017.8 0.0
19/07:00pm 18.0 14.7 12.7 71 3.0 E 22 28 12 15 1019.4 1017.6 0.0
19/06:30pm 17.9 14.3 13.0 73 2.8 E 24 32 13 17 1019.1 1017.3 0.0
19/06:00pm 18.1 14.2 13.2 73 2.8 E 26 35 14 19 1018.7 1016.9 0.0
19/05:30pm 19.3 12.4 12.8 66 3.7 ESE 41 54 22 29 1017.8 1016.0 0.0
19/05:00pm 20.7 14.7 12.1 58 4.9 E 35 46 19 25 1017.0 1015.2 0.0
19/04:30pm 21.0 14.3 12.2 57 5.0 E 39 50 21 27 1016.9 1015.1 0.0
19/04:00pm 21.5 14.8 12.4 56 5.2 ESE 39 52 21 28 1016.8 1015.0 0.0
19/03:30pm 20.9 12.1 12.3 58 4.9 ESE 50 59 27 32 1016.9 1015.1 0.0
19/03:08pm 23.7 17.5 12.7 50 6.4 E 37 59 20 32 1016.5 1014.7 0.0
19/03:00pm 24.5 18.1 10.8 42 7.8 ESE 35 46 19 25 1016.3 1014.5 0.0
19/02:30pm 24.5 17.6 10.4 41 8.0 E 37 52 20 28 1016.7 1014.9 0.0
19/02:21pm 24.6 19.0 11.5 44 7.5 ESE 32 52 17 28 1016.7 1014.9 0.0
19/02:00pm 24.4 18.6 11.4 44 7.4 E 33 44 18 24 1016.8 1015.0 0.0
19/01:30pm 25.1 19.7 10.9 41 8.1 E 30 41 16 22 1017.1 1015.3 0.0
19/01:00pm 23.7 18.8 11.4 46 7.0 ESE 28 37 15 20 1017.5 1015.7 0.0
19/12:30pm 24.1 19.2 11.4 45 7.3 ESE 28 41 15 22 1017.7 1015.9 0.0
19/12:00pm 22.4 17.8 10.9 48 6.5 E 26 37 14 20 1018.2 1016.3 0.0
19/11:30am 23.2 19.1 11.6 48 6.6 ESE 24 39 13 21 1018.4 1016.6 0.0
19/11:00am 23.4 18.6 11.8 48 6.7 E 28 37 15 20 1018.7 1016.9 0.0
19/10:30am 23.6 18.8 11.6 47 6.9 E 28 35 15 19 1018.9 1017.1 0.0
19/10:00am 22.9 17.3 11.6 49 6.4 E 32 43 17 23 1018.9 1017.1 0.0
19/09:30am 21.8 17.7 13.7 60 4.8 E 28 37 15 20 1018.9 1017.1 0.0
19/09:00am 20.0 15.6 13.0 64 4.0 E 28 41 15 22 1018.8 1017.0 1.6
19/08:30am 20.3 15.5 13.0 63 4.2 E 30 43 16 23 1018.6 1016.8 1.6
19/08:00am 19.6 15.6 14.0 70 3.3 E 28 39 15 21 1018.6 1016.8 1.6
19/07:30am 18.6 14.5 13.9 74 2.7 E 28 35 15 19 1018.5 1016.7 1.6
19/07:09am 18.2 15.3 14.1 77 2.4 E 22 33 12 18 1018.2 1016.3 1.6
19/07:00am 17.9 15.4 14.2 79 2.2 E 20 28 11 15 1018.0 1016.2 1.6
19/06:41am 17.6 15.4 15.0 85 1.5 E 20 28 11 15 1017.6 1015.8 1.6
19/06:31am 16.6 13.8 14.2 86 1.4 E 22 30 12 16 1017.5 1015.7 1.6
19/06:30am 16.5 13.7 14.2 86 1.3 E 22 30 12 16 1017.4 1015.6 1.6
19/06:12am 16.2 13.9 14.2 88 1.2 E 19 24 10 13 1017.4 1015.6 1.6
19/06:00am 15.8 14.3 14.2 90 0.9 E 15 20 8 11 1017.2 1015.4 1.6
19/05:30am 15.1 12.7 13.8 92 0.7 E 19 26 10 14 1016.5 1014.7 1.6
19/05:28am 14.9 12.9 13.8 93 0.6 E 17 24 9 13 1016.5 1014.7 1.6
19/05:00am 14.5 12.7 13.2 92 0.7 ESE 15 20 8 11 1016.2 1014.4 1.6
19/04:49am 14.6 12.5 13.5 93 0.6 ESE 17 24 9 13 1016.0 1014.1 1.6
19/04:30am 14.6 12.4 13.3 92 0.7 E 17 20 9 11 1015.7 1013.8 1.6
19/04:28am 14.6 12.8 13.3 92 0.7 E 15 20 8 11 1015.7 1013.8 1.6
19/04:00am 14.6 12.8 13.3 92 0.7 E 15 22 8 12 1015.7 1013.8 1.6
19/03:30am 14.6 11.8 13.3 92 0.7 E 20 26 11 14 1015.6 1013.7 1.6
19/03:00am 14.6 12.2 13.8 95 0.5 E 19 22 10 12 1015.6 1013.7 1.6
19/02:30am 13.9 12.8 13.1 95 0.4 E 11 15 6 8 1015.9 1014.0 1.6
19/02:00am 14.5 13.5 13.5 94 0.6 ENE 11 15 6 8 1016.0 1014.1 1.6
19/01:30am 14.6 13.3 13.8 95 0.5 E 13 17 7 9 1016.0 1014.1 1.6
19/01:00am 14.8 14.7 13.8 94 0.6 ESE 7 9 4 5 1016.3 1014.5 1.6
19/12:30am 14.9 12.9 13.9 94 0.6 E 17 19 9 10 1016.5 1014.7 1.6
19/12:00am 14.9 13.7 14.1 95 0.5 E 13 17 7 9 1016.8 1015.0 1.6
 
Date/Time
EST
Temp
°C
App
Temp
°C
Dew
Point
°C
Rel
Hum
%
Delta-T
°C
Wind Press
QNH
hPa
Press
MSL
hPa
Rain since
9am
mm
Dir  Spd
km/h
Gust
km/h
Spd
kts
Gust
kts
18/11:30pm 14.4 13.5 13.6 95 0.5 ESE 11 15 6 8 1017.2 1015.4 1.6
18/11:00pm 13.6 11.6 12.7 94 0.5 ESE 15 17 8 9 1017.4 1015.6 1.6
18/10:30pm 14.0 12.8 12.7 92 0.7 E 11 15 6 8 1017.8 1016.0 1.6
18/10:00pm 14.1 12.8 12.5 90 0.9 ESE 11 13 6 7 1017.9 1016.1 1.6
18/09:30pm 14.5 14.1 12.4 87 1.2 E 6 9 3 5 1018.2 1016.3 1.6
18/09:00pm 14.6 12.9 12.5 87 1.2 ENE 13 17 7 9 1018.3 1016.4 1.6
18/08:30pm 14.5 11.9 12.0 85 1.4 ENE 17 19 9 10 1018.0 1016.2 1.6
18/08:00pm 15.0 11.1 12.1 83 1.6 ENE 24 30 13 16 1017.5 1015.7 1.6
18/07:30pm 15.3 11.2 12.8 85 1.4 ENE 26 35 14 19 1017.6 1015.8 1.6
18/07:00pm 15.7 11.4 13.2 85 1.4 ENE 28 35 15 19 1017.4 1015.6 1.6
18/06:30pm 16.0 11.6 14.0 88 1.2 ENE 30 39 16 21 1017.2 1015.4 1.6
18/06:00pm 16.4 14.1 14.6 89 1.1 E 20 28 11 15 1016.8 1015.0 1.6
18/05:46pm 16.4 13.8 14.8 90 0.9 E 22 28 12 15 1016.6 1014.8 1.6
18/05:30pm 16.6 13.7 15.0 90 0.9 E 24 32 13 17 1016.6 1014.8 1.6
18/05:17pm 16.7 14.2 15.2 91 0.9 E 22 28 12 15 1016.2 1014.4 1.6
18/05:00pm 16.8 13.9 15.2 90 0.9 E 24 32 13 17 1015.9 1014.0 1.6
18/04:30pm 16.9 14.3 14.9 88 1.2 ENE 22 32 12 17 1015.9 1014.0 1.4
18/04:00pm 17.3 14.4 15.1 87 1.3 E 24 32 13 17 1015.9 1014.0 1.4
18/03:30pm 17.8 14.9 15.1 84 1.6 ENE 24 32 13 17 1015.7 1013.8 1.2
18/03:00pm 18.4 15.3 15.5 83 1.7 E 26 32 14 17 1015.6 1013.7 1.2
18/02:30pm 18.5 15.0 15.4 82 1.9 E 28 35 15 19 1015.6 1013.7 1.2
18/02:00pm 20.0 16.9 14.4 70 3.3 ENE 24 32 13 17 1015.8 1013.9 1.2
18/01:30pm 20.5 16.6 14.4 68 3.6 E 28 35 15 19 1016.1 1014.2 1.2
18/01:00pm 21.8 19.3 15.2 66 4.0 E 22 33 12 18 1016.1 1014.2 1.2
18/12:30pm 20.7 19.0 15.7 73 3.0 E 19 24 10 13 1016.6 1014.8 1.2
18/12:00pm 19.0 17.9 16.4 85 1.6 E 17 22 9 12 1016.8 1015.0 1.2
18/11:46am 18.5 17.0 15.4 82 1.9 ENE 17 22 9 12 1016.9 1015.1 1.0
18/11:34am 18.3 15.4 15.2 82 1.8 NE 24 30 13 16 1017.0 1015.2 0.4
18/11:30am 18.6 15.6 14.9 79 2.2 NE 24 32 13 17 1016.9 1015.1 0.4
18/11:00am 20.9 16.2 12.1 57 5.0 E 28 35 15 19 1016.6 1014.8 0.0
18/10:30am 21.2 16.9 12.1 56 5.2 ENE 26 35 14 19 1016.6 1014.8 0.0
18/10:00am 21.4 16.4 12.3 56 5.2 ENE 30 37 16 20 1016.5 1014.7 0.0
18/09:30am 21.4 16.8 12.3 56 5.2 ENE 28 39 15 21 1016.3 1014.5 0.0
18/09:00am 21.8 16.3 11.8 53 5.7 NE 32 41 17 22 1016.2 1014.4 0.0
18/08:30am 21.7 15.7 10.8 50 6.1 ENE 33 43 18 23 1016.2 1014.4 0.0
18/08:00am 21.3 15.6 11.9 55 5.4 ENE 33 39 18 21 1016.5 1014.7 0.0
18/07:30am 20.3 16.3 13.0 63 4.2 NE 26 35 14 19 1016.7 1014.9 0.0
18/07:00am 18.9 17.2 13.7 72 3.0 ENE 15 22 8 12 1017.1 1015.3 0.0
18/06:30am 17.9 16.6 13.8 77 2.4 NE 13 19 7 10 1017.2 1015.4 0.0
18/06:00am 16.7 14.9 13.4 81 1.9 NE 15 19 8 10 1017.2 1015.4 0.0
18/05:30am 16.0 15.0 13.5 85 1.4 ENE 11 13 6 7 1017.3 1015.5 0.0
18/05:00am 15.5 14.5 13.3 87 1.2 ENE 11 13 6 7 1017.2 1015.4 0.0

Latest Capital City Observations: Canberra | Sydney | Melbourne | Brisbane | Adelaide | Perth | Hobart | Darwin

Other Formats:

Comma delimited format used in spreadsheet applications
http://www.bom.gov.au/fwo/IDQ60901/IDQ60901.94552.axf

JavaScript Object Notation format (JSON) in row-major order
http://www.bom.gov.au/fwo/IDQ60901/IDQ60901.94552.json